Time;durP1;ratioP1;P1;durP2;ratioP2;P2;SDS_P1;SDS_P2;PMS_P1;PMS_P2;Temp;Humidity;BMP_temperature;BMP_pressure;BME280_temperature;BME280_humidity;BME280_pressure;Samples;Min_cycle;Max_cycle;Signal;HPM_P1;HPM_P2
2021/09/23 00:00:04;;;;;;;3.22;2.97;;;9.70;99.90;;;;;;4974203;28;20207;-73
2021/09/23 00:05:12;;;;;;;3.47;3.08;;;9.70;99.90;;;;;;4993856;28;20531;-72
2021/09/23 00:07:39;;;;;;;3.83;3.53;;;9.70;99.90;;;;;;4993504;28;20210;-73
2021/09/23 00:10:07;;;;;;;3.30;3.05;;;9.60;99.90;;;;;;4997512;28;20191;-72
2021/09/23 00:12:33;;;;;;;2.70;2.50;;;9.60;99.90;;;;;;4994063;28;20626;-72
2021/09/23 00:14:59;;;;;;;2.67;2.38;;;9.60;99.90;;;;;;4978125;28;20172;-73
2021/09/23 00:17:24;;;;;;;3.73;3.20;;;9.60;99.90;;;;;;4977887;28;20190;-73
2021/09/23 00:19:50;;;;;;;2.90;2.70;;;9.60;99.90;;;;;;4978034;28;20197;-73
2021/09/23 00:22:16;;;;;;;3.97;3.03;;;9.60;99.90;;;;;;4981734;28;20171;-72
2021/09/23 00:24:42;;;;;;;2.53;2.33;;;9.60;99.90;;;;;;4996035;28;20256;-73
2021/09/23 00:27:07;;;;;;;3.27;2.97;;;9.60;99.90;;;;;;4997061;28;20174;-73
2021/09/23 00:29:33;;;;;;;3.07;2.27;;;9.50;99.90;;;;;;4997289;28;20658;-72
2021/09/23 00:31:58;;;;;;;3.57;3.27;;;9.50;99.90;;;;;;4995171;28;20305;-72
2021/09/23 00:34:24;;;;;;;3.60;3.30;;;9.50;99.90;;;;;;4994588;28;20190;-72
2021/09/23 00:36:50;;;;;;;4.03;2.27;;;9.40;99.90;;;;;;4996815;28;20175;-72
2021/09/23 00:39:15;;;;;;;3.50;3.30;;;9.40;99.90;;;;;;4997318;28;20638;-72
2021/09/23 00:41:41;;;;;;;9.50;5.10;;;9.40;99.90;;;;;;4997003;28;20172;-73
2021/09/23 00:44:21;;;;;;;3.50;2.87;;;9.40;99.90;;;;;;4993263;28;20289;-73
2021/09/23 00:46:50;;;;;;;3.30;3.00;;;9.40;99.90;;;;;;4963166;28;20179;-73
2021/09/23 00:49:17;;;;;;;3.20;2.88;;;9.30;99.90;;;;;;4996839;28;20194;-73
2021/09/23 00:51:43;;;;;;;4.03;3.55;;;9.30;99.90;;;;;;4985786;28;20214;-73
2021/09/23 00:54:10;;;;;;;4.55;3.90;;;9.30;99.90;;;;;;4994329;28;20187;-73
2021/09/23 00:56:35;;;;;;;4.22;3.67;;;9.30;99.90;;;;;;4982947;28;20640;-73
2021/09/23 00:59:01;;;;;;;4.20;3.90;;;9.30;99.90;;;;;;4977289;28;20198;-73
2021/09/23 01:01:27;;;;;;;3.50;3.17;;;9.30;99.90;;;;;;4985830;28;20241;-73
2021/09/23 01:03:54;;;;;;;9.23;2.90;;;9.30;99.90;;;;;;4996551;28;20670;-72
2021/09/23 01:06:20;;;;;;;4.10;3.80;;;9.30;99.90;;;;;;4996377;28;20175;-73
2021/09/23 01:08:57;;;;;;;4.65;4.28;;;9.20;99.90;;;;;;4996053;28;20658;-73
2021/09/23 01:11:24;;;;;;;4.80;4.38;;;9.20;99.90;;;;;;4978130;28;20183;-72
2021/09/23 01:13:50;;;;;;;3.25;3.05;;;9.20;99.90;;;;;;4997111;28;20207;-72
2021/09/23 01:16:16;;;;;;;4.00;3.70;;;9.20;99.90;;;;;;4996286;28;20258;-72
2021/09/23 01:18:42;;;;;;;4.45;3.55;;;9.20;99.90;;;;;;4997882;28;20195;-72
2021/09/23 01:21:09;;;;;;;3.60;3.30;;;9.20;99.90;;;;;;4978082;28;20631;-73
2021/09/23 01:23:38;;;;;;;4.43;3.75;;;9.20;99.90;;;;;;4976757;28;20203;-73
2021/09/23 01:26:08;;;;;;;5.30;3.75;;;9.20;99.90;;;;;;4981781;28;20187;-74
2021/09/23 01:28:34;;;;;;;3.78;3.45;;;9.10;99.90;;;;;;4995651;28;20187;-73
2021/09/23 01:31:01;;;;;;;5.07;4.22;;;9.20;99.90;;;;;;4979213;28;20210;-70
2021/09/23 01:33:27;;;;;;;4.10;3.00;;;9.20;99.90;;;;;;4976662;28;20197;-70
2021/09/23 01:35:53;;;;;;;2.97;2.78;;;9.20;99.90;;;;;;4984409;28;20206;-69
2021/09/23 01:38:19;;;;;;;3.20;2.90;;;9.20;99.90;;;;;;4995619;28;20175;-70
2021/09/23 01:40:44;;;;;;;3.83;2.87;;;9.20;99.90;;;;;;4981403;28;20184;-72
2021/09/23 01:43:10;;;;;;;3.30;3.00;;;9.10;99.90;;;;;;4959115;28;20211;-73
2021/09/23 01:45:36;;;;;;;3.63;3.33;;;9.10;99.90;;;;;;4980735;28;20526;-73
2021/09/23 01:48:02;;;;;;;3.35;3.10;;;9.10;99.90;;;;;;4995443;28;20500;-73
2021/09/23 01:50:28;;;;;;;4.60;4.20;;;9.10;99.90;;;;;;4993978;28;20203;-73
2021/09/23 01:52:54;;;;;;;3.57;3.27;;;9.10;99.90;;;;;;4982521;28;20184;-73
2021/09/23 01:55:20;;;;;;;4.20;3.80;;;9.10;99.90;;;;;;4978606;28;20426;-72
2021/09/23 01:57:45;;;;;;;4.20;3.67;;;9.10;99.90;;;;;;4978443;28;20690;-73
2021/09/23 02:00:11;;;;;;;3.60;3.37;;;9.10;99.90;;;;;;4977092;28;20200;-73
2021/09/23 02:02:37;;;;;;;11.10;3.90;;;9.00;99.90;;;;;;4976202;28;20169;-73
2021/09/23 02:05:03;;;;;;;2.90;2.70;;;9.00;99.90;;;;;;4976068;28;20179;-72
2021/09/23 02:07:29;;;;;;;2.80;2.60;;;9.00;99.90;;;;;;4980572;28;20183;-72
2021/09/23 02:09:55;;;;;;;3.83;3.27;;;8.90;99.90;;;;;;4958463;28;20200;-72
2021/09/23 02:12:22;;;;;;;3.50;3.30;;;8.90;99.90;;;;;;4975923;28;20211;-72
2021/09/23 02:14:48;;;;;;;4.45;4.05;;;8.80;99.90;;;;;;4975879;28;20921;-72
2021/09/23 02:17:14;;;;;;;3.83;3.17;;;8.90;99.90;;;;;;4987989;28;20183;-73
2021/09/23 02:19:39;;;;;;;3.40;3.10;;;8.80;99.90;;;;;;4977838;28;20208;-72
2021/09/23 02:22:06;;;;;;;2.73;2.53;;;8.80;99.90;;;;;;4995021;28;20753;-72
2021/09/23 02:24:31;;;;;;;3.78;3.47;;;8.70;99.90;;;;;;4995203;28;20199;-73
2021/09/23 02:26:57;;;;;;;4.50;3.73;;;8.70;99.90;;;;;;4980797;28;20263;-73
2021/09/23 02:29:22;;;;;;;6.13;2.97;;;8.70;99.90;;;;;;4975667;28;20591;-73
2021/09/23 02:31:48;;;;;;;2.90;2.70;;;8.70;99.90;;;;;;4972165;28;20190;-72
2021/09/23 02:34:14;;;;;;;3.27;3.07;;;8.70;99.90;;;;;;4995220;28;20228;-73
2021/09/23 02:36:40;;;;;;;3.30;2.90;;;8.60;99.90;;;;;;4987924;28;20400;-72
2021/09/23 02:39:05;;;;;;;3.43;3.13;;;8.60;99.90;;;;;;4975455;28;20280;-72
2021/09/23 02:41:32;;;;;;;3.67;3.40;;;8.60;99.90;;;;;;4987160;28;20183;-72
2021/09/23 02:43:58;;;;;;;3.40;2.70;;;8.60;99.90;;;;;;4994306;28;20433;-72
2021/09/23 02:46:24;;;;;;;5.25;3.53;;;8.60;99.90;;;;;;4991113;28;20191;-73
2021/09/23 02:48:50;;;;;;;4.03;2.90;;;8.60;99.90;;;;;;4974955;28;20183;-72
2021/09/23 02:51:15;;;;;;;3.30;3.00;;;8.60;99.90;;;;;;4984543;28;20186;-72
2021/09/23 02:53:43;;;;;;;2.70;2.40;;;8.60;99.90;;;;;;4994692;28;20265;-73
2021/09/23 02:56:09;;;;;;;2.55;2.35;;;8.50;99.90;;;;;;4976036;28;20179;-71
2021/09/23 02:58:35;;;;;;;2.58;2.22;;;8.50;99.90;;;;;;4974668;28;20199;-71
2021/09/23 03:01:00;;;;;;;3.60;3.17;;;8.40;99.90;;;;;;4982008;28;20175;-71
2021/09/23 03:03:26;;;;;;;4.60;4.30;;;8.40;99.90;;;;;;4994135;28;20202;-71
2021/09/23 03:05:52;;;;;;;2.50;2.30;;;8.40;99.90;;;;;;4994503;28;20198;-71
2021/09/23 03:08:17;;;;;;;3.33;3.10;;;8.30;99.90;;;;;;4975755;28;20639;-71
2021/09/23 03:10:43;;;;;;;2.30;2.20;;;8.30;99.90;;;;;;4978802;28;20184;-71
2021/09/23 03:13:09;;;;;;;2.93;2.70;;;8.30;99.90;;;;;;4994631;28;20174;-71
2021/09/23 03:15:34;;;;;;;3.97;3.03;;;8.30;99.90;;;;;;4968623;28;20186;-71
2021/09/23 03:18:00;;;;;;;2.43;2.33;;;8.30;99.90;;;;;;4974519;28;20259;-72
2021/09/23 03:20:26;;;;;;;3.17;2.58;;;8.30;99.90;;;;;;4975451;28;20192;-71
2021/09/23 03:22:52;;;;;;;4.03;3.73;;;8.30;99.90;;;;;;4974990;28;20257;-71
2021/09/23 03:25:18;;;;;;;5.00;3.53;;;8.30;99.90;;;;;;4980109;28;20182;-71
2021/09/23 03:27:44;;;;;;;2.05;1.95;;;8.30;99.90;;;;;;4976003;28;20690;-72
2021/09/23 03:30:11;;;;;;;4.85;3.80;;;8.30;99.90;;;;;;4976385;28;20222;-71
2021/09/23 03:32:37;;;;;;;2.53;2.33;;;8.30;99.90;;;;;;4976109;28;20171;-70
2021/09/23 03:35:04;;;;;;;3.95;3.10;;;8.30;99.90;;;;;;4990511;28;20543;-72
2021/09/23 03:37:29;;;;;;;2.83;2.50;;;8.30;99.90;;;;;;4974259;28;20166;-70
2021/09/23 03:39:55;;;;;;;3.70;3.43;;;8.20;99.90;;;;;;4974548;28;20205;-71
2021/09/23 03:42:21;;;;;;;3.47;3.27;;;8.20;99.90;;;;;;4989543;28;20220;-72
2021/09/23 03:44:47;;;;;;;3.30;3.00;;;8.20;99.90;;;;;;4992557;28;20665;-72
2021/09/23 03:47:13;;;;;;;2.92;2.72;;;8.20;99.90;;;;;;4974103;28;20226;-70
2021/09/23 03:49:39;;;;;;;2.83;2.65;;;8.20;99.90;;;;;;4973941;28;20213;-71
2021/09/23 03:52:05;;;;;;;2.87;2.13;;;8.10;99.90;;;;;;4982973;28;20191;-70
2021/09/23 03:54:30;;;;;;;2.90;2.70;;;8.10;99.90;;;;;;4975308;28;20181;-70
2021/09/23 03:56:56;;;;;;;3.07;2.87;;;8.10;99.90;;;;;;4974655;28;20508;-71
2021/09/23 03:59:22;;;;;;;2.70;2.50;;;8.10;99.90;;;;;;4974552;28;20231;-71
2021/09/23 04:01:49;;;;;;;2.57;2.20;;;8.10;99.90;;;;;;4984798;28;20267;-71
2021/09/23 04:04:15;;;;;;;4.40;3.88;;;8.10;99.90;;;;;;4993923;28;20198;-71
2021/09/23 04:06:42;;;;;;;2.75;2.55;;;8.10;99.90;;;;;;4976020;28;20537;-71
2021/09/23 04:09:10;;;;;;;3.90;3.40;;;8.10;99.90;;;;;;4993701;28;20194;-70
2021/09/23 04:11:36;;;;;;;4.18;3.25;;;8.10;99.90;;;;;;4992949;28;20232;-71
2021/09/23 04:14:02;;;;;;;3.10;2.47;;;8.00;99.90;;;;;;4993308;28;20187;-72
2021/09/23 04:16:27;;;;;;;2.77;2.50;;;8.00;99.90;;;;;;4993311;28;20432;-71
2021/09/23 04:18:53;;;;;;;3.60;2.60;;;8.00;99.90;;;;;;4993295;28;20194;-71
2021/09/23 04:21:18;;;;;;;4.07;3.77;;;8.00;99.90;;;;;;4982781;28;20183;-71
2021/09/23 04:23:44;;;;;;;3.63;3.33;;;8.00;99.90;;;;;;4973980;28;20202;-71
2021/09/23 04:26:10;;;;;;;3.60;3.30;;;7.90;99.90;;;;;;4956702;28;20171;-70
2021/09/23 04:28:35;;;;;;;5.07;4.67;;;7.90;99.90;;;;;;4973437;28;20199;-70
2021/09/23 04:31:01;;;;;;;4.90;4.50;;;7.90;99.90;;;;;;4980412;28;20261;-70
2021/09/23 04:33:27;;;;;;;4.37;3.97;;;7.80;99.90;;;;;;4973989;28;20543;-71
2021/09/23 04:35:54;;;;;;;3.73;3.47;;;7.70;99.90;;;;;;4974110;28;20411;-71
2021/09/23 04:38:20;;;;;;;3.78;3.45;;;7.70;99.90;;;;;;4956335;28;20210;-71
2021/09/23 04:40:46;;;;;;;3.90;3.53;;;7.70;99.90;;;;;;4980015;28;20186;-71
2021/09/23 04:43:15;;;;;;;2.47;2.27;;;7.70;99.90;;;;;;4973988;28;20557;-71
2021/09/23 04:45:40;;;;;;;3.97;3.08;;;7.70;99.90;;;;;;4975003;28;20430;-71
2021/09/23 04:48:06;;;;;;;2.40;2.30;;;7.60;99.90;;;;;;4973477;28;20177;-71
2021/09/23 04:50:32;;;;;;;4.13;3.73;;;7.70;99.90;;;;;;4977981;28;20213;-71
2021/09/23 04:52:57;;;;;;;3.20;3.00;;;7.70;99.90;;;;;;4975805;28;20188;-70
2021/09/23 04:55:23;;;;;;;4.20;3.90;;;7.70;99.90;;;;;;4979246;28;20186;-71
2021/09/23 04:57:48;;;;;;;5.77;3.83;;;7.70;99.90;;;;;;4996487;28;20202;-70
2021/09/23 05:00:14;;;;;;;2.93;2.73;;;7.70;99.90;;;;;;4994788;28;20211;-71
2021/09/23 05:02:40;;;;;;;2.72;2.53;;;7.70;99.90;;;;;;4981983;28;20189;-70
2021/09/23 05:05:10;;;;;;;3.90;3.60;;;7.70;99.90;;;;;;4996032;28;20171;-70
2021/09/23 05:07:35;;;;;;;4.05;3.65;;;7.70;99.90;;;;;;4976818;28;20193;-70
2021/09/23 05:10:01;;;;;;;3.70;2.83;;;7.60;99.90;;;;;;4977110;28;20263;-69
2021/09/23 05:12:26;;;;;;;3.33;3.00;;;7.70;99.90;;;;;;4961738;28;20179;-70
2021/09/23 05:14:52;;;;;;;3.70;3.03;;;7.70;99.90;;;;;;4996336;28;20229;-70
2021/09/23 05:17:17;;;;;;;2.33;2.20;;;7.70;99.90;;;;;;4976692;28;20192;-72
2021/09/23 05:19:43;;;;;;;2.50;2.30;;;7.60;99.90;;;;;;4996288;28;20189;-71
2021/09/23 05:22:09;;;;;;;3.57;3.27;;;7.60;99.90;;;;;;4995244;28;20177;-71
2021/09/23 05:24:35;;;;;;;2.77;2.57;;;7.60;99.90;;;;;;4996043;28;20198;-70
2021/09/23 05:27:00;;;;;;;3.07;2.80;;;7.60;99.90;;;;;;4981021;28;20944;-69
2021/09/23 05:29:26;;;;;;;3.67;3.37;;;7.60;99.90;;;;;;4976562;28;20676;-69
2021/09/23 05:31:52;;;;;;;4.20;3.80;;;7.60;99.90;;;;;;4984688;28;20242;-69
2021/09/23 05:34:17;;;;;;;3.40;3.10;;;7.60;99.90;;;;;;4996190;28;20182;-71
2021/09/23 05:36:43;;;;;;;3.23;3.00;;;7.70;99.90;;;;;;4963439;28;20218;-70
2021/09/23 05:39:09;;;;;;;4.20;4.00;;;7.70;99.90;;;;;;4976396;28;20199;-71
2021/09/23 05:41:35;;;;;;;3.33;3.13;;;7.80;99.90;;;;;;4978729;28;20183;-70
2021/09/23 05:44:00;;;;;;;4.40;4.00;;;7.80;99.90;;;;;;4995727;28;20268;-72
2021/09/23 05:46:28;;;;;;;4.93;3.67;;;7.90;99.90;;;;;;4966961;28;20459;-72
2021/09/23 05:48:53;;;;;;;3.50;3.20;;;8.00;99.90;;;;;;4978190;28;20196;-72
2021/09/23 05:51:19;;;;;;;4.00;3.60;;;8.10;99.90;;;;;;4976112;28;20268;-71
2021/09/23 05:53:44;;;;;;;4.43;2.90;;;8.20;99.90;;;;;;4981277;28;20191;-69
2021/09/23 05:56:10;;;;;;;6.60;4.07;;;8.20;99.90;;;;;;4976463;28;20575;-72
2021/09/23 05:58:36;;;;;;;4.87;4.47;;;8.40;99.90;;;;;;4975871;28;20269;-72
2021/09/23 06:01:02;;;;;;;6.07;4.20;;;8.50;99.90;;;;;;4976474;28;20327;-70
2021/09/23 06:03:27;;;;;;;4.43;4.07;;;8.80;99.90;;;;;;4990619;28;20293;-70
2021/09/23 06:05:53;;;;;;;10.47;5.57;;;8.90;99.90;;;;;;4978113;28;20871;-72
2021/09/23 06:08:18;;;;;;;7.80;6.03;;;9.30;99.90;;;;;;4973665;28;20180;-72
2021/09/23 06:10:44;;;;;;;11.23;5.30;;;9.80;99.90;;;;;;4982223;28;20175;-72
2021/09/23 06:13:10;;;;;;;6.83;4.73;;;10.30;99.90;;;;;;4980695;28;20238;-72
2021/09/23 06:15:35;;;;;;;6.70;4.43;;;10.60;99.90;;;;;;4973888;28;20183;-72
2021/09/23 06:18:01;;;;;;;10.17;4.43;;;10.70;99.90;;;;;;4973672;28;20271;-72
2021/09/23 06:20:27;;;;;;;7.65;4.40;;;10.60;99.90;;;;;;4974770;28;20562;-71
2021/09/23 06:22:55;;;;;;;5.27;4.83;;;10.60;99.90;;;;;;4967761;28;20259;-71
2021/09/23 06:25:21;;;;;;;4.22;3.92;;;10.40;99.90;;;;;;4974005;28;20424;-73
2021/09/23 06:27:47;;;;;;;3.97;3.63;;;10.50;99.90;;;;;;4980179;28;20519;-75
2021/09/23 06:30:13;;;;;;;5.27;4.63;;;10.50;99.90;;;;;;4985866;28;20198;-73
2021/09/23 06:32:39;;;;;;;6.10;5.03;;;10.60;99.90;;;;;;4994954;28;20702;-74
2021/09/23 06:35:05;;;;;;;5.90;4.67;;;10.60;99.90;;;;;;4977030;28;20266;-73
2021/09/23 06:37:32;;;;;;;4.95;4.30;;;10.60;99.90;;;;;;4976392;28;20423;-72
2021/09/23 06:39:57;;;;;;;7.20;3.80;;;10.50;99.90;;;;;;4975208;28;20191;-70
2021/09/23 06:42:23;;;;;;;4.47;4.07;;;10.60;99.90;;;;;;4976029;28;20172;-72
2021/09/23 06:44:49;;;;;;;4.07;3.67;;;10.70;99.90;;;;;;4983590;28;20202;-71
2021/09/23 06:47:14;;;;;;;4.10;3.40;;;10.90;99.90;;;;;;4975803;28;20176;-70
2021/09/23 06:49:40;;;;;;;4.23;3.87;;;11.40;99.90;;;;;;4974843;28;20207;-72
2021/09/23 06:52:06;;;;;;;4.10;3.27;;;11.80;99.90;;;;;;4985263;28;20178;-70
2021/09/23 06:54:32;;;;;;;3.53;3.13;;;12.10;99.90;;;;;;4976853;28;20189;-70
2021/09/23 06:56:58;;;;;;;5.90;4.17;;;12.40;99.90;;;;;;4976431;28;20407;-71
2021/09/23 06:59:23;;;;;;;5.00;3.73;;;12.60;99.90;;;;;;4993836;28;20530;-69
2021/09/23 07:01:49;;;;;;;5.33;3.97;;;12.90;99.90;;;;;;4984881;28;20229;-72
2021/09/23 07:04:15;;;;;;;4.50;4.10;;;13.30;99.90;;;;;;4986226;28;20265;-72
2021/09/23 07:06:41;;;;;;;4.13;3.77;;;13.60;99.90;;;;;;4993316;28;20174;-72
2021/09/23 07:09:10;;;;;;;4.83;4.00;;;14.00;99.90;;;;;;4991778;28;20453;-72
2021/09/23 07:11:36;;;;;;;4.90;4.27;;;14.40;99.90;;;;;;4974626;28;20521;-73
2021/09/23 07:14:10;;;;;;;4.50;4.10;;;14.70;99.90;;;;;;4974260;28;20443;-72
2021/09/23 07:16:36;;;;;;;4.90;4.33;;;15.00;99.90;;;;;;4956916;28;20423;-73
2021/09/23 07:19:01;;;;;;;3.73;3.43;;;15.40;99.90;;;;;;4973907;28;20464;-72
2021/09/23 07:21:27;;;;;;;4.93;4.40;;;15.70;99.90;;;;;;4970263;28;20246;-70
2021/09/23 07:23:53;;;;;;;3.80;3.47;;;15.60;99.90;;;;;;4974452;28;20254;-72
2021/09/23 07:26:19;;;;;;;5.17;3.87;;;15.50;99.90;;;;;;4953367;28;20471;-70
2021/09/23 07:28:46;;;;;;;4.50;3.30;;;15.60;99.90;;;;;;4973543;28;20659;-70
2021/09/23 07:31:11;;;;;;;4.40;3.23;;;15.70;99.90;;;;;;4989748;28;20414;-72
2021/09/23 07:33:37;;;;;;;4.53;4.13;;;15.90;99.90;;;;;;4986914;28;20896;-70
2021/09/23 07:36:03;;;;;;;3.90;3.50;;;16.30;99.90;;;;;;4974458;28;20256;-70
2021/09/23 07:38:29;;;;;;;4.63;4.07;;;16.90;99.90;;;;;;4974253;28;20410;-71
2021/09/23 07:40:55;;;;;;;4.23;3.80;;;17.70;99.90;;;;;;4974299;28;20431;-72
2021/09/23 07:43:20;;;;;;;3.07;2.80;;;18.30;99.90;;;;;;4974281;28;20686;-72
2021/09/23 07:45:46;;;;;;;6.63;3.80;;;19.00;99.90;;;;;;4988954;28;20519;-72
2021/09/23 07:48:12;;;;;;;4.50;3.53;;;20.00;99.90;;;;;;4987465;28;20764;-72
2021/09/23 07:50:37;;;;;;;4.70;3.67;;;21.00;97.10;;;;;;4978120;28;20278;-73
2021/09/23 07:53:03;;;;;;;2.90;2.70;;;21.80;96.00;;;;;;4986127;28;20254;-73
2021/09/23 07:55:32;;;;;;;14.90;8.77;;;22.40;95.80;;;;;;4991473;28;20248;-72
2021/09/23 07:57:57;;;;;;;3.80;3.50;;;23.50;93.20;;;;;;4990521;28;20444;-73
2021/09/23 08:00:24;;;;;;;3.70;3.30;;;24.50;92.10;;;;;;4981863;28;21036;-70
2021/09/23 08:02:51;;;;;;;5.10;4.10;;;25.20;90.60;;;;;;4993652;28;20542;-71
2021/09/23 08:05:17;;;;;;;4.73;3.30;;;26.00;87.00;;;;;;4980014;28;20395;-72
2021/09/23 08:07:48;;;;;;;4.03;3.70;;;26.60;85.50;;;;;;4973484;28;20814;-72
2021/09/23 08:10:15;;;;;;;3.63;3.40;;;27.10;80.90;;;;;;4985630;28;20223;-74
2021/09/23 08:12:40;;;;;;;4.50;4.10;;;27.40;81.20;;;;;;4987733;28;20448;-71
2021/09/23 08:15:07;;;;;;;8.57;4.90;;;27.50;78.80;;;;;;4977159;28;20902;-74
2021/09/23 08:17:32;;;;;;;5.00;4.60;;;27.60;77.60;;;;;;4976796;28;20215;-74
2021/09/23 08:19:58;;;;;;;4.13;3.83;;;28.00;76.90;;;;;;4983806;28;20829;-75
2021/09/23 08:22:24;;;;;;;4.23;3.83;;;28.50;75.80;;;;;;4993595;28;20254;-71
2021/09/23 08:24:50;;;;;;;5.07;4.40;;;28.90;73.80;;;;;;4958900;28;20675;-71
2021/09/23 08:27:15;;;;;;;4.40;3.87;;;28.90;71.10;;;;;;4973854;28;20527;-71
2021/09/23 08:29:43;;;;;;;4.37;3.97;;;28.40;70.20;;;;;;4974334;28;20275;-71
2021/09/23 08:32:09;;;;;;;4.27;3.87;;;28.50;71.30;;;;;;4997357;28;20574;-71
2021/09/23 08:34:34;;;;;;;4.80;4.30;;;28.50;71.60;;;;;;4985753;28;20429;-71
2021/09/23 08:37:00;;;;;;;3.97;3.57;;;28.70;69.70;;;;;;4996715;28;20673;-71
2021/09/23 08:39:25;;;;;;;3.67;3.37;;;28.60;70.40;;;;;;4981220;28;20242;-70
2021/09/23 08:41:51;;;;;;;3.73;3.43;;;29.00;69.80;;;;;;4995226;28;20191;-70
2021/09/23 08:44:17;;;;;;;3.87;3.47;;;29.50;68.40;;;;;;4984262;28;20200;-71
2021/09/23 08:46:43;;;;;;;4.00;3.70;;;29.90;67.00;;;;;;4976233;28;20172;-69
2021/09/23 08:49:10;;;;;;;4.13;3.73;;;30.00;65.70;;;;;;4976613;28;20200;-70
2021/09/23 08:51:37;;;;;;;4.17;3.87;;;30.30;65.20;;;;;;4976640;28;20813;-70
2021/09/23 08:54:04;;;;;;;3.10;2.80;;;30.40;63.50;;;;;;4968910;28;20426;-69
2021/09/23 08:56:30;;;;;;;4.20;3.90;;;30.70;62.60;;;;;;4983053;28;20427;-70
2021/09/23 08:58:55;;;;;;;3.07;2.80;;;31.10;62.00;;;;;;4976513;28;20510;-70
2021/09/23 09:01:23;;;;;;;3.37;3.07;;;31.20;60.10;;;;;;4977148;28;20659;-70
2021/09/23 09:04:00;;;;;;;4.13;3.40;;;31.20;59.00;;;;;;4977270;28;20582;-70
2021/09/23 09:06:25;;;;;;;3.30;3.00;;;31.40;58.60;;;;;;4988088;28;20446;-71
2021/09/23 09:08:51;;;;;;;3.27;2.97;;;31.50;58.60;;;;;;4996243;28;20465;-71
2021/09/23 09:11:17;;;;;;;3.43;3.23;;;31.60;58.30;;;;;;4996809;28;20182;-72
2021/09/23 09:13:45;;;;;;;2.90;2.70;;;31.60;58.20;;;;;;4996453;28;20246;-70
2021/09/23 09:16:18;;;;;;;5.30;2.90;;;31.60;58.40;;;;;;4994775;28;20183;-70
2021/09/23 09:18:45;;;;;;;2.73;2.53;;;31.80;57.60;;;;;;4996011;28;20425;-71
2021/09/23 09:21:17;;;;;;;3.30;3.10;;;31.70;57.20;;;;;;4996164;28;20415;-71
2021/09/23 09:23:58;;;;;;;3.30;3.00;;;31.90;57.00;;;;;;4996069;28;20808;-71
2021/09/23 09:26:34;;;;;;;2.60;2.40;;;32.10;57.80;;;;;;4985737;28;20446;-70
2021/09/23 09:29:03;;;;;;;3.23;2.70;;;32.10;57.20;;;;;;4959391;28;20467;-70
2021/09/23 09:31:30;;;;;;;3.40;3.10;;;32.30;56.70;;;;;;4976809;28;20412;-69
2021/09/23 09:34:01;;;;;;;3.47;3.17;;;32.70;56.10;;;;;;4976702;28;20758;-70
2021/09/23 09:36:32;;;;;;;2.43;2.27;;;33.00;56.00;;;;;;4986891;28;20414;-70
2021/09/23 09:39:07;;;;;;;2.90;2.70;;;33.20;56.30;;;;;;4995918;28;20478;-71
2021/09/23 09:41:39;;;;;;;5.37;3.50;;;33.30;54.40;;;;;;4995525;28;20402;-71
2021/09/23 09:44:11;;;;;;;3.37;3.07;;;32.90;54.70;;;;;;4996002;28;20455;-70
2021/09/23 09:46:47;;;;;;;4.40;2.93;;;32.70;55.20;;;;;;4966535;28;20999;-69
2021/09/23 09:49:14;;;;;;;5.87;5.27;;;32.80;55.10;;;;;;4976384;28;20426;-70
2021/09/23 09:51:42;;;;;;;2.30;2.20;;;33.00;54.50;;;;;;4976240;28;20424;-71
2021/09/23 09:54:10;;;;;;;2.77;2.57;;;33.30;54.10;;;;;;4976538;28;20559;-71
2021/09/23 09:56:38;;;;;;;2.33;2.17;;;33.30;54.80;;;;;;4976151;28;20423;-71
2021/09/23 09:59:15;;;;;;;3.53;2.20;;;33.50;53.20;;;;;;4976128;28;20440;-71
2021/09/23 10:01:44;;;;;;;2.10;2.00;;;33.70;52.80;;;;;;4976403;28;20407;-70
2021/09/23 10:04:12;;;;;;;2.57;2.10;;;33.80;51.90;;;;;;4976329;28;20451;-71
2021/09/23 10:06:41;;;;;;;3.00;2.60;;;33.80;51.70;;;;;;4986025;28;20481;-70
2021/09/23 10:09:08;;;;;;;3.30;3.00;;;33.50;52.20;;;;;;4995381;28;20509;-69
2021/09/23 10:11:37;;;;;;;2.10;2.00;;;33.10;52.60;;;;;;4995513;28;20510;-70
2021/09/23 10:14:03;;;;;;;2.67;2.47;;;32.70;53.50;;;;;;4995375;28;20414;-69
2021/09/23 10:16:30;;;;;;;3.40;2.83;;;32.70;53.70;;;;;;4994567;28;20426;-70
2021/09/23 10:18:57;;;;;;;2.37;2.17;;;32.60;53.50;;;;;;4995218;28;20518;-69
2021/09/23 10:21:24;;;;;;;2.63;2.03;;;32.40;53.40;;;;;;4995350;28;20417;-70
2021/09/23 10:23:52;;;;;;;2.40;1.83;;;32.20;53.30;;;;;;4995163;28;20877;-70
2021/09/23 10:26:19;;;;;;;4.37;2.83;;;31.90;54.20;;;;;;4988288;28;20486;-71
2021/09/23 10:28:48;;;;;;;1.97;1.87;;;31.80;54.90;;;;;;4975298;28;20821;-69
2021/09/23 10:31:18;;;;;;;2.73;2.53;;;31.70;55.10;;;;;;4975781;28;20419;-70
2021/09/23 10:33:46;;;;;;;2.33;2.13;;;31.80;54.50;;;;;;4975664;28;20443;-70
2021/09/23 10:36:13;;;;;;;2.40;2.17;;;31.70;54.10;;;;;;4975500;28;20445;-68
2021/09/23 10:38:40;;;;;;;2.43;2.23;;;31.20;55.00;;;;;;4975007;28;20804;-70
2021/09/23 10:41:06;;;;;;;2.80;2.43;;;30.80;55.80;;;;;;4965740;28;20415;-70
2021/09/23 10:43:32;;;;;;;1.87;1.77;;;30.30;56.10;;;;;;4994908;28;20494;-68
2021/09/23 10:46:00;;;;;;;4.33;3.67;;;30.00;57.00;;;;;;4995000;28;20190;-70
2021/09/23 10:48:28;;;;;;;2.67;2.10;;;30.00;57.30;;;;;;4994413;28;20385;-69
2021/09/23 10:50:55;;;;;;;2.40;2.10;;;30.00;58.00;;;;;;4994194;28;21007;-71
2021/09/23 10:53:20;;;;;;;3.13;2.80;;;29.90;57.00;;;;;;4993955;28;20442;-70
2021/09/23 10:55:47;;;;;;;2.50;2.30;;;29.60;57.30;;;;;;4994574;28;20434;-71
2021/09/23 10:58:13;;;;;;;2.60;2.40;;;29.50;57.80;;;;;;4994132;28;20176;-70
2021/09/23 11:00:42;;;;;;;2.60;2.40;;;29.70;58.00;;;;;;4993782;28;20964;-70
2021/09/23 11:03:10;;;;;;;4.30;2.50;;;29.80;58.10;;;;;;4994461;28;20447;-69
2021/09/23 11:05:37;;;;;;;2.70;2.50;;;29.40;57.50;;;;;;4976653;28;20397;-72
2021/09/23 11:08:14;;;;;;;2.30;2.10;;;28.30;59.00;;;;;;4993958;28;20723;-71
2021/09/23 11:10:42;;;;;;;4.50;2.47;;;27.30;60.00;;;;;;4992327;28;20411;-68
2021/09/23 11:13:10;;;;;;;2.53;2.17;;;26.00;64.80;;;;;;4975639;28;20779;-69
2021/09/23 11:15:38;;;;;;;2.77;2.57;;;25.30;66.70;;;;;;4974840;28;20743;-71
2021/09/23 11:18:04;;;;;;;2.17;1.97;;;24.90;66.60;;;;;;4974234;28;20413;-69
2021/09/23 11:20:32;;;;;;;4.33;2.00;;;24.40;68.30;;;;;;4974689;28;20409;-69
2021/09/23 11:23:06;;;;;;;2.80;2.07;;;24.20;67.80;;;;;;4975240;28;20411;-70
2021/09/23 11:25:35;;;;;;;6.60;2.20;;;23.80;70.30;;;;;;4974649;28;20375;-72
2021/09/23 11:28:02;;;;;;;1.60;1.50;;;23.10;72.00;;;;;;4974353;28;20398;-71
2021/09/23 11:30:31;;;;;;;1.70;1.60;;;22.80;73.50;;;;;;4974684;28;20847;-71
2021/09/23 11:33:17;;;;;;;1.90;1.80;;;22.60;75.10;;;;;;4993646;28;20784;-71
2021/09/23 11:35:45;;;;;;;1.67;1.57;;;22.50;78.50;;;;;;4994017;28;20785;-70
2021/09/23 11:38:18;;;;;;;1.80;1.50;;;22.40;79.90;;;;;;4993609;28;20949;-69
2021/09/23 11:40:47;;;;;;;2.30;2.10;;;22.50;78.80;;;;;;4990312;28;20438;-72
2021/09/23 11:43:20;;;;;;;3.00;1.80;;;22.40;78.70;;;;;;4974314;28;20436;-75
2021/09/23 11:45:54;;;;;;;1.93;1.43;;;22.50;80.90;;;;;;4974465;28;20429;-74
2021/09/23 11:48:25;;;;;;;1.90;1.57;;;22.50;79.30;;;;;;4974290;28;20756;-74
2021/09/23 11:50:57;;;;;;;2.97;2.07;;;22.50;78.70;;;;;;4977393;28;20436;-75
2021/09/23 11:53:30;;;;;;;1.63;1.53;;;22.50;79.90;;;;;;4980984;28;20437;-75
2021/09/23 11:56:08;;;;;;;2.00;1.83;;;22.50;82.40;;;;;;4974350;28;20429;-74
2021/09/23 11:58:38;;;;;;;2.40;2.20;;;22.60;78.70;;;;;;4973995;28;20435;-73
2021/09/23 12:01:05;;;;;;;2.90;2.23;;;22.50;78.70;;;;;;4977640;28;20518;-74
2021/09/23 12:03:36;;;;;;;1.57;1.47;;;22.50;78.20;;;;;;4983876;28;20498;-72
2021/09/23 12:06:02;;;;;;;1.63;1.53;;;22.60;77.70;;;;;;4962572;28;20787;-72
2021/09/23 12:08:31;;;;;;;1.30;1.20;;;22.60;75.80;;;;;;4977609;28;20437;-72
2021/09/23 12:10:58;;;;;;;2.33;1.90;;;22.60;75.80;;;;;;4979547;28;20499;-74
2021/09/23 12:13:33;;;;;;;2.03;1.83;;;22.60;76.00;;;;;;4997671;28;20393;-72
2021/09/23 12:16:01;;;;;;;2.13;1.80;;;22.60;77.00;;;;;;4997837;28;20416;-72
2021/09/23 12:18:28;;;;;;;2.00;1.90;;;22.60;77.50;;;;;;4990135;28;20420;-70
2021/09/23 12:20:57;;;;;;;3.33;1.83;;;22.60;77.40;;;;;;4990334;28;20409;-71
2021/09/23 12:23:30;;;;;;;1.50;1.40;;;22.60;78.50;;;;;;4989735;28;20430;-71
2021/09/23 12:26:09;;;;;;;1.87;1.77;;;22.70;77.60;;;;;;4996498;28;20445;-71
2021/09/23 12:28:57;;;;;;;3.00;1.50;;;22.70;76.20;;;;;;4996314;28;20500;-71
2021/09/23 12:31:44;;;;;;;1.97;1.50;;;22.80;75.80;;;;;;4996997;28;20393;-71
2021/09/23 12:34:13;;;;;;;2.23;1.30;;;22.80;76.80;;;;;;4997003;28;20928;-71
2021/09/23 12:36:43;;;;;;;1.60;1.50;;;22.80;74.80;;;;;;4996862;28;20385;-71
2021/09/23 12:39:21;;;;;;;2.53;1.67;;;22.80;74.90;;;;;;4997161;28;20452;-72
2021/09/23 12:41:55;;;;;;;1.80;1.70;;;22.90;74.70;;;;;;4995508;28;20404;-71
2021/09/23 12:44:57;;;;;;;2.80;1.63;;;22.90;77.00;;;;;;4995122;28;20950;-72
2021/09/23 12:47:23;;;;;;;2.20;2.00;;;23.00;76.60;;;;;;4991564;28;20440;-72
2021/09/23 12:49:49;;;;;;;1.60;1.40;;;23.00;75.40;;;;;;4994663;28;20429;-72
2021/09/23 12:52:19;;;;;;;1.63;1.53;;;23.10;72.20;;;;;;4994843;28;20455;-73